Time;durP1;ratioP1;P1;durP2;ratioP2;P2;SDS_P1;SDS_P2;PMS_P1;PMS_P2;Temp;Humidity;BMP_temperature;BMP_pressure;BME280_temperature;BME280_humidity;BME280_pressure;Samples;Min_cycle;Max_cycle;Signal;HPM_P1;HPM_P2
2023/02/10 00:01:37;;;;;;;0.90;0.90;;;-2.20;60.70;;;-3.96;50.00;96449.59;5075788;28;20179;-30
2023/02/10 00:04:04;;;;;;;0.90;0.90;;;-2.20;60.60;;;-3.99;50.03;96459.13;5074742;28;20218;-30
2023/02/10 00:06:32;;;;;;;0.90;0.90;;;-2.30;60.50;;;-4.04;49.69;96457.63;5075092;28;20194;-30
2023/02/10 00:09:01;;;;;;;1.00;1.00;;;-2.30;60.50;;;-4.08;49.74;96460.38;5057845;28;20188;-31
2023/02/10 00:14:16;;;;;;;0.90;0.90;;;-2.40;60.30;;;-4.17;49.70;96459.03;5075276;28;20501;-30
2023/02/10 00:16:44;;;;;;;0.90;0.90;;;-2.40;60.30;;;-4.19;49.92;96460.81;5057651;28;20222;-29
2023/02/10 00:19:11;;;;;;;0.90;0.90;;;-2.40;60.40;;;-4.21;49.95;96455.75;5075200;28;20198;-30
2023/02/10 00:21:38;;;;;;;0.90;0.90;;;-2.50;60.40;;;-4.22;49.98;96448.94;5075035;28;20202;-30
2023/02/10 00:24:05;;;;;;;1.00;1.00;;;-2.50;60.50;;;-4.22;50.27;96450.69;5075171;28;20276;-32
2023/02/10 00:26:32;;;;;;;0.90;0.90;;;-2.50;60.70;;;-4.24;50.20;96452.47;5074887;28;20195;-29
2023/02/10 00:28:59;;;;;;;1.00;1.00;;;-2.50;60.60;;;-4.25;50.16;96450.81;5075105;28;20195;-28
2023/02/10 00:31:26;;;;;;;0.90;0.90;;;-2.50;60.60;;;-4.27;50.12;96444.91;5074258;28;20195;-28
2023/02/10 00:33:53;;;;;;;0.80;0.80;;;-2.60;60.40;;;-4.29;49.87;96439.03;5074403;28;20223;-31
2023/02/10 00:36:21;;;;;;;0.90;0.90;;;-2.60;60.40;;;-4.34;49.93;96436.66;5074163;28;20195;-28
2023/02/10 00:38:52;;;;;;;0.70;0.70;;;-2.60;60.50;;;-4.35;50.20;96437.53;5075108;28;20207;-31
2023/02/10 00:41:22;;;;;;;0.80;0.80;;;-2.60;60.80;;;-4.38;50.17;96430.81;5074998;28;20187;-29
2023/02/10 00:43:50;;;;;;;0.90;0.90;;;-2.60;60.60;;;-4.41;50.20;96445.47;5073798;28;20253;-31
2023/02/10 00:46:20;;;;;;;0.90;0.90;;;-2.70;60.60;;;-4.45;49.93;96442.19;5057020;28;20214;-31
2023/02/10 00:48:47;;;;;;;0.90;0.90;;;-2.70;60.60;;;-4.51;49.92;96440.72;5090615;28;20195;-29
2023/02/10 00:51:15;;;;;;;0.90;0.90;;;-2.70;60.50;;;-4.55;49.65;96446.03;5047709;28;20232;-30
2023/02/10 00:53:43;;;;;;;0.90;0.90;;;-2.80;60.30;;;-4.57;49.55;96442.69;5050463;28;20229;-30
2023/02/10 00:56:10;;;;;;;0.80;0.80;;;-2.80;60.30;;;-4.59;49.48;96444.47;5034753;28;20200;-31
2023/02/10 00:58:37;;;;;;;0.80;0.80;;;-2.80;60.30;;;-4.62;50.01;96450.56;5034577;28;20543;-28
2023/02/10 01:01:05;;;;;;;0.80;0.80;;;-2.80;60.40;;;-4.63;50.21;96450.63;5034948;28;20209;-28
2023/02/10 01:03:33;;;;;;;1.00;1.00;;;-2.80;60.40;;;-4.65;50.23;96453.25;5037560;28;20243;-28
2023/02/10 01:06:01;;;;;;;0.90;0.90;;;-2.90;60.50;;;-4.67;50.19;96458.41;5038696;28;20276;-29
2023/02/10 01:08:29;;;;;;;0.90;0.90;;;-2.90;61.40;;;-4.67;50.01;96452.47;5054075;28;20254;-31
2023/02/10 01:11:08;;;;;;;0.90;0.90;;;-2.90;60.50;;;-4.71;49.93;96450.91;5038714;28;20193;-32
2023/02/10 01:13:37;;;;;;;1.00;1.00;;;-2.90;60.80;;;-4.73;50.36;96458.66;5038756;28;20263;-30
2023/02/10 01:16:13;;;;;;;0.90;0.90;;;-3.00;60.90;;;-4.75;50.40;96451.94;5037566;28;20201;-28
2023/02/10 01:18:41;;;;;;;0.85;0.85;;;-3.00;61.50;;;-4.76;50.21;96448.53;5038438;28;20176;-32
2023/02/10 01:21:11;;;;;;;1.00;1.00;;;-3.10;61.10;;;-4.76;50.17;96450.25;5054122;28;20201;-30
2023/02/10 01:23:39;;;;;;;0.80;0.80;;;-3.10;61.10;;;-4.77;50.19;96436.63;5037488;28;20590;-29
2023/02/10 01:26:08;;;;;;;0.90;0.90;;;-3.10;60.90;;;-4.77;50.32;96438.34;5038148;28;20207;-28
2023/02/10 01:28:37;;;;;;;0.90;0.90;;;-3.10;60.80;;;-4.77;50.53;96435.78;5053817;28;20192;-30
2023/02/10 01:31:14;;;;;;;0.90;0.90;;;-3.10;60.90;;;-4.75;50.38;96434.00;5038314;28;20207;-32
2023/02/10 01:33:41;;;;;;;0.90;0.90;;;-3.10;60.90;;;-4.75;50.33;96451.94;5038345;28;20181;-29
2023/02/10 01:36:13;;;;;;;0.85;0.85;;;-3.10;61.00;;;-4.73;50.55;96442.47;5038359;28;20215;-31
2023/02/10 01:38:41;;;;;;;0.90;0.90;;;-3.10;61.20;;;-4.72;50.66;96441.59;5038079;28;20187;-30
2023/02/10 01:41:08;;;;;;;0.90;0.90;;;-3.10;61.00;;;-4.72;50.41;96441.59;5053696;28;20196;-29
2023/02/10 01:44:21;;;;;;;1.00;1.00;;;-3.10;61.00;;;-4.73;50.52;96429.69;5053546;28;20216;-28
2023/02/10 01:46:48;;;;;;;0.80;0.80;;;-3.10;61.90;;;-4.72;51.95;96441.59;5038054;28;20200;-28
2023/02/10 01:49:19;;;;;;;0.85;0.85;;;-3.00;61.50;;;-4.62;55.48;96444.63;5036911;28;20205;-30
2023/02/10 01:52:09;;;;;;;0.90;0.90;;;-3.00;63.20;;;-4.34;55.08;96446.91;5036997;28;20224;-29
2023/02/10 01:55:04;;;;;;;1.00;1.00;;;-3.00;63.90;;;-4.10;54.66;96451.91;5053486;28;20556;-30
2023/02/10 01:57:31;;;;;;;0.80;0.80;;;-2.90;63.90;;;-3.95;54.21;96448.69;5036775;28;20267;-30
2023/02/10 02:00:02;;;;;;;0.90;0.90;;;-2.80;63.60;;;-3.81;54.13;96450.66;5037778;28;20193;-30
2023/02/10 02:02:39;;;;;;;0.90;0.90;;;-2.60;63.90;;;-3.67;54.12;96454.38;5037670;28;20584;-29
2023/02/10 02:05:28;;;;;;;0.90;0.90;;;-2.50;63.90;;;-3.56;54.33;96452.19;5036764;28;20576;-29
2023/02/10 02:07:59;;;;;;;0.80;0.80;;;-2.40;64.00;;;-3.44;54.50;96456.78;5036753;28;20518;-29
2023/02/10 02:10:43;;;;;;;0.90;0.90;;;-2.20;64.20;;;-3.34;54.74;96462.34;5037586;28;20205;-28
2023/02/10 02:13:37;;;;;;;0.90;0.90;;;-2.10;64.30;;;-3.24;54.78;96461.03;5037106;28;20191;-28
2023/02/10 02:16:44;;;;;;;0.80;0.80;;;-2.00;64.60;;;-3.16;54.22;96447.88;5037445;28;20515;-29
2023/02/10 02:19:50;;;;;;;0.90;0.90;;;-1.90;64.20;;;-3.09;54.47;96453.53;5036637;28;20185;-29
2023/02/10 02:22:40;;;;;;;0.90;0.90;;;-1.80;64.00;;;-3.01;53.67;96453.22;5037486;28;20227;-30
2023/02/10 02:26:04;;;;;;;0.88;0.88;;;-1.70;63.80;;;-2.96;54.14;96454.66;5037450;28;20188;-28
2023/02/10 02:29:36;;;;;;;1.00;1.00;;;-1.70;64.50;;;-2.87;53.64;96462.84;5028590;28;20197;-28
2023/02/10 02:32:21;;;;;;;0.95;0.95;;;-1.50;64.00;;;-2.83;53.82;96461.78;5033022;28;20201;-29
2023/02/10 02:35:12;;;;;;;0.90;0.90;;;-1.40;63.80;;;-2.78;54.01;96458.09;5037033;28;20188;-29
2023/02/10 02:37:44;;;;;;;0.80;0.80;;;-1.40;63.80;;;-2.67;54.03;96467.03;5035973;28;20195;-32
2023/02/10 02:40:14;;;;;;;0.80;0.80;;;-1.30;63.90;;;-2.59;53.67;96452.09;5036167;28;20178;-30
2023/02/10 02:42:41;;;;;;;0.80;0.80;;;-1.30;63.80;;;-2.51;53.68;96456.91;5036982;28;20224;-30
2023/02/10 02:45:32;;;;;;;0.80;0.80;;;-1.20;63.80;;;-2.42;53.58;96456.44;5036858;28;20189;-29
2023/02/10 02:48:18;;;;;;;0.85;0.85;;;-1.10;64.10;;;-2.36;53.27;96447.63;5052366;28;20619;-29
2023/02/10 02:51:50;;;;;;;0.80;0.80;;;-1.10;64.00;;;-2.33;52.97;96432.03;5039899;28;20207;-29
2023/02/10 02:54:26;;;;;;;0.90;0.90;;;-1.00;63.60;;;-2.29;53.97;96433.56;5018536;28;20212;-28
2023/02/10 02:57:44;;;;;;;0.90;0.90;;;-0.90;64.00;;;-2.16;53.83;96428.63;5042634;28;20290;-30
2023/02/10 03:00:29;;;;;;;0.90;0.90;;;-0.80;64.20;;;-2.07;54.35;96419.66;5059080;28;20599;-31
2023/02/10 03:02:59;;;;;;;0.80;0.80;;;-0.80;64.90;;;-1.96;54.71;96427.66;5076702;28;20219;-29
2023/02/10 03:05:32;;;;;;;0.80;0.80;;;-0.70;64.40;;;-1.81;54.26;96426.91;5092318;28;20194;-30
2023/02/10 03:07:59;;;;;;;0.90;0.90;;;-0.60;64.40;;;-1.72;54.00;96432.47;5076484;28;20175;-31
2023/02/10 03:10:26;;;;;;;0.90;0.90;;;-0.50;64.00;;;-1.64;53.66;96438.88;5075327;28;20199;-31
2023/02/10 03:12:53;;;;;;;0.80;0.80;;;-0.40;65.00;;;-1.61;53.71;96438.72;5076547;28;20195;-29
2023/02/10 03:15:20;;;;;;;0.80;0.80;;;-0.40;64.10;;;-1.58;53.75;96431.75;5076209;28;20199;-30
2023/02/10 03:17:47;;;;;;;0.90;0.90;;;-0.30;64.20;;;-1.53;53.81;96432.34;5076012;28;20294;-29
2023/02/10 03:20:14;;;;;;;0.90;0.90;;;-0.20;64.00;;;-1.48;53.32;96443.22;5076066;28;20200;-32
2023/02/10 03:22:42;;;;;;;0.90;0.90;;;-0.20;63.90;;;-1.52;53.46;96439.97;5075962;28;20205;-31
2023/02/10 03:25:10;;;;;;;0.80;0.80;;;-0.20;63.80;;;-1.55;53.15;96447.03;5075260;28;20534;-30
2023/02/10 03:27:37;;;;;;;0.93;0.93;;;-0.10;63.80;;;-1.61;53.07;96446.44;5075749;28;20642;-28
2023/02/10 03:30:04;;;;;;;0.90;0.90;;;-0.10;63.50;;;-1.65;53.61;96447.53;5076113;28;20249;-28
2023/02/10 03:32:31;;;;;;;0.80;0.80;;;-0.10;63.60;;;-1.69;53.76;96455.47;5076137;28;20247;-29
2023/02/10 03:34:58;;;;;;;0.80;0.80;;;-0.20;64.10;;;-1.69;53.66;96451.13;5076044;28;20191;-30
2023/02/10 03:37:25;;;;;;;0.93;0.93;;;-0.20;64.00;;;-1.72;53.34;96443.59;5075594;28;20528;-28
2023/02/10 03:39:52;;;;;;;0.80;0.80;;;-0.20;63.60;;;-1.76;52.99;96447.22;5075704;28;20230;-33
2023/02/10 03:42:19;;;;;;;0.90;0.90;;;-0.20;63.40;;;-1.84;52.96;96457.06;5075936;28;20559;-29
2023/02/10 03:44:46;;;;;;;0.88;0.88;;;-0.20;63.20;;;-1.92;52.94;96454.06;5075534;28;20211;-29
2023/02/10 03:47:13;;;;;;;0.80;0.80;;;-0.30;63.20;;;-2.00;53.72;96462.13;5075585;28;20665;-30
2023/02/10 03:49:40;;;;;;;0.90;0.90;;;-0.30;63.50;;;-2.06;53.16;96453.00;5057845;28;20191;-30
2023/02/10 03:52:08;;;;;;;0.90;0.90;;;-0.40;63.30;;;-2.13;53.64;96443.91;5057832;28;20682;-29
2023/02/10 03:54:35;;;;;;;0.80;0.80;;;-0.40;63.30;;;-2.19;53.75;96439.09;5075481;28;20192;-29
2023/02/10 03:57:02;;;;;;;0.80;0.80;;;-0.50;63.60;;;-2.21;54.09;96435.75;5074593;28;20529;-29
2023/02/10 03:59:29;;;;;;;0.93;0.93;;;-0.50;63.90;;;-2.22;54.24;96442.63;5075207;28;20199;-30
2023/02/10 04:01:56;;;;;;;0.90;0.90;;;-0.60;63.80;;;-2.21;53.58;96439.16;5058285;28;20328;-28
2023/02/10 04:04:23;;;;;;;0.90;0.90;;;-0.60;63.50;;;-2.24;53.37;96447.00;5075228;28;20211;-28
2023/02/10 04:06:50;;;;;;;0.90;0.90;;;-0.60;63.60;;;-2.27;53.58;96449.72;5075271;28;20188;-29
2023/02/10 04:09:17;;;;;;;0.90;0.90;;;-0.70;63.60;;;-2.29;53.42;96448.97;5075083;28;20198;-31
2023/02/10 04:11:44;;;;;;;0.80;0.80;;;-0.70;63.50;;;-2.34;53.50;96462.03;5075251;28;20203;-30
2023/02/10 04:14:11;;;;;;;0.80;0.80;;;-0.70;63.50;;;-2.38;53.80;96451.97;5075402;28;20646;-29
2023/02/10 04:16:38;;;;;;;0.90;0.90;;;-0.70;63.70;;;-2.39;54.08;96468.31;5074338;28;20188;-31
2023/02/10 04:19:06;;;;;;;0.90;0.90;;;-0.80;63.70;;;-2.42;53.43;96462.44;5074925;28;20195;-29
2023/02/10 04:21:33;;;;;;;0.90;0.90;;;-0.80;63.50;;;-2.49;53.17;96460.19;5075081;28;20195;-30
2023/02/10 04:24:00;;;;;;;1.00;1.00;;;-0.80;63.40;;;-2.58;53.50;96462.28;5057572;28;20306;-30
2023/02/10 04:26:27;;;;;;;1.00;1.00;;;-0.90;63.40;;;-2.63;53.13;96468.56;5074133;28;20520;-30
2023/02/10 04:28:54;;;;;;;0.88;0.88;;;-0.90;63.20;;;-2.70;52.94;96464.63;5057269;28;20199;-31
2023/02/10 04:31:21;;;;;;;1.00;1.00;;;-1.00;63.00;;;-2.76;53.63;96468.28;5074121;28;20198;-31
2023/02/10 04:33:48;;;;;;;0.90;0.90;;;-1.00;63.50;;;-2.77;53.86;96476.91;5074910;28;20296;-31
2023/02/10 04:36:15;;;;;;;0.80;0.80;;;-1.10;63.80;;;-2.81;53.73;96470.25;5074736;28;20195;-30
2023/02/10 04:38:42;;;;;;;0.80;0.80;;;-1.10;63.90;;;-2.84;54.01;96465.28;5074890;28;20646;-30
2023/02/10 04:41:09;;;;;;;1.00;1.00;;;-1.10;63.90;;;-2.84;53.99;96470.41;5075416;28;20568;-28
2023/02/10 04:43:36;;;;;;;0.90;0.90;;;-1.20;63.90;;;-2.88;53.52;96477.41;5074758;28;20223;-29
2023/02/10 04:46:03;;;;;;;0.90;0.90;;;-1.20;63.70;;;-2.95;53.23;96478.59;5074810;28;20195;-30
2023/02/10 04:48:31;;;;;;;0.90;0.90;;;-1.30;63.50;;;-3.00;53.64;96485.66;5074831;28;20527;-29
2023/02/10 04:50:58;;;;;;;0.80;0.80;;;-1.30;63.70;;;-3.08;53.56;96479.13;5074845;28;20198;-30
2023/02/10 04:53:25;;;;;;;0.80;0.80;;;-1.30;63.80;;;-3.12;53.48;96487.06;5074766;28;20179;-32
2023/02/10 04:55:52;;;;;;;0.80;0.80;;;-1.40;63.60;;;-3.19;53.51;96485.66;5074824;28;20248;-29
2023/02/10 04:58:21;;;;;;;0.80;0.80;;;-1.40;63.60;;;-3.25;53.38;96487.59;5074655;28;20203;-29
2023/02/10 05:00:48;;;;;;;0.80;0.80;;;-1.50;63.40;;;-3.32;53.13;96491.34;5074680;28;20202;-29
2023/02/10 05:03:15;;;;;;;0.90;0.90;;;-1.50;63.20;;;-3.38;53.04;96492.44;5073618;28;20225;-30
2023/02/10 05:05:42;;;;;;;0.88;0.88;;;-1.60;63.10;;;-3.43;53.36;96493.53;5074606;28;20273;-29
2023/02/10 05:08:09;;;;;;;0.90;0.90;;;-1.60;63.20;;;-3.49;53.79;96507.47;5074522;28;20202;-30
2023/02/10 05:10:36;;;;;;;0.80;0.80;;;-1.70;63.60;;;-3.55;53.91;96505.97;5074825;28;20222;-29
2023/02/10 05:13:03;;;;;;;0.90;0.90;;;-1.70;63.70;;;-3.57;53.79;96517.22;5074538;28;20678;-29
2023/02/10 05:15:30;;;;;;;0.90;0.90;;;-1.80;63.80;;;-3.60;53.80;96525.03;5074496;28;20188;-29
2023/02/10 05:17:57;;;;;;;0.80;0.80;;;-1.90;63.80;;;-3.66;53.92;96523.56;5074612;28;20569;-30
2023/02/10 05:20:24;;;;;;;0.80;0.80;;;-1.90;63.90;;;-3.66;53.71;96525.28;5074586;28;20252;-28
2023/02/10 05:22:51;;;;;;;0.90;0.90;;;-1.90;63.70;;;-3.72;53.70;96523.81;5074428;28;20636;-30
2023/02/10 05:25:18;;;;;;;0.80;0.80;;;-1.90;63.60;;;-3.75;53.49;96535.03;5074477;28;20230;-29
2023/02/10 05:27:45;;;;;;;0.80;0.80;;;-2.00;63.40;;;-3.83;53.39;96526.81;5074757;28;20257;-28
2023/02/10 05:30:13;;;;;;;0.90;0.90;;;-2.00;63.30;;;-3.88;53.22;96531.31;5073373;28;20198;-31
2023/02/10 05:32:41;;;;;;;1.00;1.00;;;-2.10;63.20;;;-3.94;53.15;96542.66;5074370;28;20191;-29
2023/02/10 05:35:09;;;;;;;0.90;0.90;;;-2.10;63.20;;;-4.00;53.39;96540.34;5074374;28;20634;-33
2023/02/10 05:37:36;;;;;;;0.80;0.80;;;-2.20;63.20;;;-4.05;53.41;96543.06;5074553;28;20292;-28
2023/02/10 05:40:04;;;;;;;1.00;1.00;;;-2.20;63.30;;;-4.08;53.40;96550.06;5074115;28;20270;-29
2023/02/10 05:42:31;;;;;;;0.80;0.80;;;-2.20;63.50;;;-4.11;55.08;96545.88;5074304;28;20202;-31
2023/02/10 05:44:58;;;;;;;0.80;0.80;;;-2.30;64.40;;;-4.05;56.67;96539.69;5074405;28;20219;-30
2023/02/10 05:47:25;;;;;;;0.82;0.82;;;-2.30;65.50;;;-3.96;57.13;96547.00;5074484;28;20199;-29
2023/02/10 05:49:52;;;;;;;0.80;0.80;;;-2.40;65.70;;;-3.84;57.06;96563.59;5076396;28;20260;-29
2023/02/10 05:52:19;;;;;;;0.90;0.90;;;-2.30;66.00;;;-3.76;58.30;96551.31;5077590;28;20231;-28
2023/02/10 05:54:46;;;;;;;0.80;0.80;;;-2.30;66.70;;;-3.64;58.56;96554.25;5076887;28;20261;-29
2023/02/10 05:57:13;;;;;;;0.80;0.80;;;-2.30;66.80;;;-3.55;58.79;96557.28;5077843;28;20631;-30
2023/02/10 05:59:41;;;;;;;0.80;0.80;;;-2.20;67.30;;;-3.45;58.78;96565.41;5077474;28;20278;-28
2023/02/10 06:02:08;;;;;;;0.90;0.90;;;-2.10;67.40;;;-3.36;58.82;96565.94;5078198;28;20192;-29
2023/02/10 06:04:35;;;;;;;0.80;0.80;;;-2.10;67.40;;;-3.29;59.07;96560.47;5077461;28;20745;-29
2023/02/10 06:07:03;;;;;;;0.93;0.93;;;-2.00;67.50;;;-3.24;58.74;96561.09;5077506;28;20198;-31
2023/02/10 06:09:30;;;;;;;0.90;0.90;;;-1.90;67.50;;;-3.16;58.42;96562.50;5077554;28;20196;-31
2023/02/10 06:11:57;;;;;;;0.80;0.80;;;-1.90;67.50;;;-3.12;57.97;96566.63;5077742;28;20199;-30
2023/02/10 06:14:24;;;;;;;0.80;0.80;;;-1.80;67.50;;;-3.10;58.21;96577.63;5077668;28;20497;-30
2023/02/10 06:16:51;;;;;;;0.93;0.93;;;-1.70;67.70;;;-3.09;57.94;96576.75;5077509;28;20191;-30
2023/02/10 06:19:18;;;;;;;0.90;0.90;;;-1.70;67.10;;;-3.12;58.18;96582.84;5077330;28;20195;-31
2023/02/10 06:21:47;;;;;;;0.80;0.80;;;-1.70;67.60;;;-3.14;58.25;96579.50;5077310;28;20692;-30
2023/02/10 06:24:14;;;;;;;0.80;0.80;;;-1.70;67.60;;;-3.13;58.06;96582.91;5077152;28;20207;-30
2023/02/10 06:26:42;;;;;;;0.80;0.80;;;-1.70;67.20;;;-3.13;57.86;96583.72;5077214;28;20184;-29
2023/02/10 06:29:09;;;;;;;0.80;0.80;;;-1.70;67.20;;;-3.16;58.17;96580.47;5077240;28;20574;-32
2023/02/10 06:31:36;;;;;;;0.80;0.80;;;-1.60;67.40;;;-3.16;58.79;96589.03;5077370;28;20201;-30
2023/02/10 06:34:03;;;;;;;0.90;0.90;;;-1.70;67.70;;;-3.13;58.53;96593.19;5092839;28;20593;-30
2023/02/10 06:36:30;;;;;;;0.90;0.90;;;-1.70;67.60;;;-3.08;58.25;96588.69;5076978;28;20209;-34
2023/02/10 06:38:57;;;;;;;0.90;0.90;;;-1.60;67.20;;;-3.09;58.11;96585.28;5077226;28;20202;-30
2023/02/10 06:41:24;;;;;;;0.90;0.90;;;-1.70;67.70;;;-3.07;57.47;96588.59;5077228;28;20192;-30
2023/02/10 06:43:51;;;;;;;1.00;1.00;;;-1.70;67.60;;;-3.08;57.44;96591.25;5076842;28;20211;-31
2023/02/10 06:46:18;;;;;;;0.90;0.90;;;-1.70;67.00;;;-3.10;57.42;96599.03;5077066;28;20184;-32
2023/02/10 06:48:45;;;;;;;0.80;0.80;;;-1.60;67.20;;;-3.07;57.25;96592.91;5077034;28;20183;-31
2023/02/10 06:51:12;;;;;;;0.90;0.90;;;-1.60;66.90;;;-3.06;57.39;96597.97;5076546;28;20227;-33
2023/02/10 06:53:40;;;;;;;0.90;0.90;;;-1.60;67.10;;;-3.07;57.65;96604.00;5076694;28;20233;-31
2023/02/10 06:56:08;;;;;;;1.00;1.00;;;-1.60;67.60;;;-3.02;57.97;96613.25;5076585;28;20641;-33
2023/02/10 06:58:35;;;;;;;0.80;0.80;;;-1.60;67.70;;;-2.98;57.38;96615.63;5076446;28;20191;-30
2023/02/10 07:01:08;;;;;;;1.00;1.00;;;-1.60;67.30;;;-2.96;58.08;96621.50;5076527;28;20199;-29
2023/02/10 07:03:36;;;;;;;1.00;1.00;;;-1.60;67.70;;;-2.93;58.23;96617.97;5076713;28;20188;-30
2023/02/10 07:06:03;;;;;;;0.90;0.90;;;-1.50;67.80;;;-2.85;57.76;96623.63;5076389;28;20207;-30
2023/02/10 07:08:31;;;;;;;0.90;0.90;;;-1.50;67.80;;;-2.80;58.02;96631.13;5076451;28;20228;-31
2023/02/10 07:10:58;;;;;;;0.90;0.90;;;-1.50;67.80;;;-2.74;57.78;96625.72;5076323;28;20202;-32
2023/02/10 07:13:25;;;;;;;0.80;0.80;;;-1.40;67.60;;;-2.68;58.24;96635.72;5076250;28;20184;-30
2023/02/10 07:15:52;;;;;;;0.80;0.80;;;-1.40;67.90;;;-2.61;58.06;96637.13;5076315;28;20207;-33
2023/02/10 07:18:19;;;;;;;0.80;0.80;;;-1.40;67.90;;;-2.55;58.46;96636.03;5076162;28;20253;-28
2023/02/10 07:20:46;;;;;;;0.80;0.80;;;-1.40;67.90;;;-2.47;58.80;96633.09;5076622;28;20187;-24
2023/02/10 07:23:13;;;;;;;0.80;0.80;;;-1.30;68.00;;;-2.39;58.20;96630.19;5076254;28;20274;-25
2023/02/10 07:25:43;;;;;;;0.80;0.80;;;-1.30;68.00;;;-2.31;58.35;96634.06;5076353;28;20208;-31
2023/02/10 07:28:10;;;;;;;0.80;0.80;;;-1.20;68.00;;;-2.21;58.43;96634.50;5077574;28;20183;-23
2023/02/10 07:30:38;;;;;;;1.00;1.00;;;-1.10;68.10;;;-2.10;57.94;96627.13;5095906;28;20201;-25
2023/02/10 07:33:05;;;;;;;0.80;0.80;;;-1.10;68.10;;;-1.97;57.58;96640.22;5096159;28;20195;-37
2023/02/10 07:35:32;;;;;;;0.80;0.80;;;-1.00;68.20;;;-1.86;57.53;96639.72;5095781;28;20210;-32
2023/02/10 07:37:59;;;;;;;0.90;0.90;;;-0.80;68.30;;;-1.77;57.36;96639.31;5096734;28;20190;-25
2023/02/10 07:40:29;;;;;;;0.80;0.80;;;-0.80;68.30;;;-1.65;56.76;96635.31;5096944;28;20194;-33
2023/02/10 07:42:56;;;;;;;0.90;0.90;;;-0.70;68.00;;;-1.55;56.89;96640.84;5096504;28;20209;-32
2023/02/10 07:45:34;;;;;;;0.90;0.90;;;-0.60;67.80;;;-1.47;56.31;96631.00;5095037;28;20268;-24
2023/02/10 07:48:01;;;;;;;0.90;0.90;;;-0.50;67.60;;;-1.37;55.93;96630.56;5095885;28;20187;-35
2023/02/10 07:50:28;;;;;;;0.80;0.80;;;-0.40;67.50;;;-1.28;55.83;96640.41;5077947;28;20663;-24
2023/02/10 07:52:59;;;;;;;0.80;0.80;;;-0.40;67.20;;;-1.20;55.56;96632.31;5095586;28;20310;-34
2023/02/10 07:55:26;;;;;;;0.90;0.90;;;-0.40;67.20;;;-0.52;57.65;96636.59;5096249;28;20206;-16
2023/02/10 07:57:53;;;;;;;0.90;0.90;;;-0.20;69.00;;;0.68;59.44;96628.34;5094915;28;20289;-14
2023/02/10 08:00:21;;;;;;;0.90;0.90;;;0.20;72.30;;;2.01;60.41;96626.44;5095491;28;20503;-15
2023/02/10 08:02:48;;;;;;;0.95;0.95;;;0.90;75.50;;;3.27;61.00;96623.53;5095858;28;20194;-16
2023/02/10 08:05:16;;;;;;;0.80;0.80;;;1.80;77.90;;;4.42;61.36;96614.66;5061867;28;20214;-16
2023/02/10 08:07:43;;;;;;;0.90;0.90;;;2.70;79.70;;;5.52;61.37;96610.91;5061949;28;20194;-16
2023/02/10 08:10:10;;;;;;;0.90;0.90;;;3.70;81.30;;;6.48;61.27;96606.84;5095462;28;20186;-16
2023/02/10 08:12:37;;;;;;;0.80;0.80;;;4.70;82.30;;;7.34;61.44;96614.56;5095165;28;20194;-16
2023/02/10 08:15:06;;;;;;;0.70;0.70;;;5.60;82.70;;;8.14;61.27;96619.97;5095715;28;20294;-15
2023/02/10 08:17:36;;;;;;;0.90;0.90;;;6.50;82.80;;;8.86;61.10;96609.31;5078094;28;20190;-16
2023/02/10 08:20:06;;;;;;;0.80;0.80;;;7.40;82.40;;;9.52;60.96;96612.91;5095559;28;20190;-15
2023/02/10 08:22:34;;;;;;;0.60;0.60;;;8.10;82.10;;;10.12;60.89;96608.22;5095352;28;20206;-15
2023/02/10 08:25:02;;;;;;;0.70;0.70;;;8.80;81.30;;;10.69;60.28;96618.50;5095175;28;20286;-16
2023/02/10 08:27:29;;;;;;;0.70;0.70;;;9.50;80.40;;;11.22;59.72;96624.69;5094410;28;20530;-16
2023/02/10 08:29:56;;;;;;;0.70;0.70;;;10.00;78.10;;;11.68;59.50;96622.66;5095561;28;20212;-16
2023/02/10 08:32:23;;;;;;;0.70;0.70;;;10.60;77.40;;;12.11;59.20;96620.09;5077873;28;20217;-16
2023/02/10 08:34:51;;;;;;;0.70;0.70;;;11.10;76.60;;;12.51;58.92;96617.72;5078146;28;20212;-16
2023/02/10 08:37:19;;;;;;;0.70;0.70;;;11.60;75.70;;;12.89;58.28;96614.63;5078138;28;20198;-14
2023/02/10 08:39:46;;;;;;;0.70;0.70;;;12.00;75.50;;;13.21;57.64;96613.00;5095207;28;20186;-16
2023/02/10 08:42:13;;;;;;;0.65;0.65;;;12.40;75.00;;;13.50;57.56;96604.59;5061144;28;20197;-15
2023/02/10 08:44:40;;;;;;;0.70;0.70;;;12.70;74.40;;;13.81;56.86;96614.38;5095243;28;20290;-15
2023/02/10 08:47:10;;;;;;;0.70;0.70;;;13.10;74.90;;;14.08;56.52;96607.84;5095830;28;20194;-14
2023/02/10 08:49:38;;;;;;;0.70;0.70;;;13.40;74.60;;;14.32;56.24;96597.34;5095224;28;20205;-14
2023/02/10 08:52:05;;;;;;;0.70;0.70;;;13.70;73.10;;;14.55;56.29;96603.47;5077362;28;20235;-15
2023/02/10 08:54:32;;;;;;;0.80;0.80;;;14.00;72.80;;;14.77;56.22;96605.50;5077419;28;20615;-14
2023/02/10 08:56:59;;;;;;;0.80;0.80;;;14.20;72.30;;;14.95;55.74;96603.41;5094993;28;20569;-14
2023/02/10 08:59:27;;;;;;;0.60;0.60;;;14.40;71.90;;;15.11;55.52;96604.25;5094142;28;20214;-14
2023/02/10 09:01:54;;;;;;;0.70;0.70;;;14.70;71.50;;;15.24;55.02;96609.75;5077118;28;20574;-14
2023/02/10 09:04:22;;;;;;;0.80;0.80;;;14.80;71.20;;;15.37;54.46;96604.66;5077496;28;20186;-14
2023/02/10 09:06:49;;;;;;;0.70;0.70;;;15.00;71.80;;;15.50;54.74;96614.66;5095240;28;20198;-16
2023/02/10 09:09:22;;;;;;;0.75;0.75;;;15.10;70.50;;;15.62;54.05;96612.34;5077524;28;20205;-15
2023/02/10 09:11:50;;;;;;;0.70;0.70;;;15.30;70.20;;;15.72;54.38;96616.56;5060921;28;20201;-14
2023/02/10 09:14:18;;;;;;;0.68;0.68;;;15.40;70.00;;;15.83;54.11;96618.78;5060937;28;20195;-15
2023/02/10 09:16:45;;;;;;;0.70;0.70;;;15.50;69.70;;;15.89;53.61;96628.63;5077623;28;20190;-14
2023/02/10 09:19:12;;;;;;;0.63;0.63;;;15.60;69.60;;;15.96;53.80;96626.09;5077604;28;20186;-14
2023/02/10 09:21:39;;;;;;;0.70;0.70;;;15.70;69.30;;;16.04;53.81;96631.28;5094721;28;20186;-14
2023/02/10 09:24:14;;;;;;;0.70;0.70;;;15.80;69.20;;;16.09;53.56;96620.97;5096723;28;20190;-15
2023/02/10 09:26:43;;;;;;;0.80;0.80;;;15.90;69.00;;;16.17;53.09;96631.47;5081345;28;20182;-14
2023/02/10 09:29:12;;;;;;;0.70;0.70;;;15.90;68.80;;;16.21;53.16;96633.72;5099284;28;20198;-15
2023/02/10 09:31:39;;;;;;;0.60;0.60;;;16.00;68.60;;;16.28;53.04;96635.47;5099136;28;20605;-14
2023/02/10 09:34:06;;;;;;;0.80;0.80;;;16.10;68.50;;;16.31;53.02;96650.97;5098464;28;20197;-15
2023/02/10 09:36:33;;;;;;;0.80;0.80;;;16.10;68.40;;;16.37;52.97;96644.13;5098448;28;20200;-14
2023/02/10 09:39:01;;;;;;;0.70;0.70;;;16.20;68.30;;;16.43;52.83;96642.53;5080848;28;20213;-14
2023/02/10 09:41:33;;;;;;;0.68;0.68;;;16.20;68.10;;;16.48;52.65;96656.06;5080950;28;20198;-14
2023/02/10 09:44:38;;;;;;;0.73;0.73;;;16.30;68.10;;;16.47;52.49;96649.94;5098582;28;20202;-14
2023/02/10 09:47:27;;;;;;;0.70;0.70;;;16.30;67.50;;;16.50;52.06;96648.72;5056480;28;20171;-16
2023/02/10 09:50:15;;;;;;;0.73;0.73;;;16.40;67.50;;;16.55;51.85;96649.03;5096766;28;20220;-15
2023/02/10 09:53:16;;;;;;;0.70;0.70;;;16.40;67.60;;;16.58;52.30;96658.41;5098012;28;20233;-15
2023/02/10 09:55:55;;;;;;;0.70;0.70;;;16.50;67.40;;;16.57;52.29;96649.63;5081033;28;20210;-15
2023/02/10 09:58:43;;;;;;;0.80;0.80;;;16.50;67.70;;;16.62;51.83;96664.97;5097330;28;20532;-16
2023/02/10 10:01:25;;;;;;;0.73;0.73;;;16.50;67.20;;;16.63;51.61;96658.66;5098236;28;20182;-16
2023/02/10 10:04:08;;;;;;;0.85;0.85;;;16.50;67.10;;;16.68;51.69;96664.22;5080889;28;20186;-16
2023/02/10 10:06:45;;;;;;;0.70;0.70;;;16.60;67.00;;;16.70;51.63;96658.72;5065253;28;20206;-16
2023/02/10 10:09:57;;;;;;;0.70;0.70;;;16.60;67.00;;;16.73;51.71;96661.03;5098571;28;20174;-16
2023/02/10 10:12:25;;;;;;;0.80;0.80;;;16.60;67.20;;;16.75;51.57;96654.53;5039673;28;20179;-16
2023/02/10 10:14:53;;;;;;;0.63;0.63;;;16.70;67.20;;;16.78;51.38;96648.88;5072976;28;20695;-15
2023/02/10 10:18:01;;;;;;;0.70;0.70;;;16.70;67.00;;;16.79;51.46;96661.06;5080337;28;20201;-15
2023/02/10 10:21:00;;;;;;;0.70;0.70;;;16.70;66.50;;;16.81;51.44;96639.72;5080190;28;20181;-16
2023/02/10 10:23:46;;;;;;;0.70;0.70;;;16.70;66.50;;;16.84;51.62;96641.16;5080156;28;20504;-16
2023/02/10 10:26:30;;;;;;;0.70;0.70;;;16.80;66.60;;;16.88;51.77;96634.47;5097663;28;20206;-15
2023/02/10 10:29:48;;;;;;;0.70;0.70;;;16.80;66.60;;;16.86;51.25;96636.50;5097465;28;20185;-16
2023/02/10 10:32:46;;;;;;;0.73;0.73;;;16.80;66.40;;;16.90;51.27;96633.25;5080396;28;20217;-15
2023/02/10 10:35:35;;;;;;;0.65;0.65;;;16.90;66.70;;;16.92;51.40;96635.78;5097044;28;20186;-15
2023/02/10 10:38:19;;;;;;;0.70;0.70;;;16.90;66.40;;;16.95;51.07;96627.44;5063974;28;20206;-15
2023/02/10 10:40:47;;;;;;;0.70;0.70;;;16.90;66.30;;;16.99;51.32;96614.63;5079415;28;20179;-15
2023/02/10 10:43:24;;;;;;;0.80;0.80;;;17.00;66.70;;;17.00;51.13;96611.78;5080255;28;20220;-15